sensor_id;sensor_type;location;lat;lon;timestamp;pressure;altitude;pressure_sealevel;temperature
15845;BMP180;50807;52.436;13.346;2022-12-29T00:00:10;100181.00;;;11.80
15845;BMP180;50807;52.436;13.346;2022-12-29T00:00:42;100189.00;;;11.80
15845;BMP180;50807;52.436;13.346;2022-12-29T00:01:13;100177.00;;;11.80
15845;BMP180;50807;52.436;13.346;2022-12-29T00:01:43;100161.00;;;11.80
15845;BMP180;50807;52.436;13.346;2022-12-29T00:02:16;100181.00;;;11.80
15845;BMP180;50807;52.436;13.346;2022-12-29T00:02:46;100180.00;;;11.80
15845;BMP180;50807;52.436;13.346;2022-12-29T00:03:17;100180.00;;;11.80
15845;BMP180;50807;52.436;13.346;2022-12-29T00:03:48;100177.00;;;11.80
15845;BMP180;50807;52.436;13.346;2022-12-29T00:04:20;100182.00;;;11.80
15845;BMP180;50807;52.436;13.346;2022-12-29T00:04:51;100190.00;;;11.80
15845;BMP180;50807;52.436;13.346;2022-12-29T00:05:23;100185.00;;;11.80
15845;BMP180;50807;52.436;13.346;2022-12-29T00:05:55;100175.00;;;11.80
15845;BMP180;50807;52.436;13.346;2022-12-29T00:06:27;100166.00;;;11.90
15845;BMP180;50807;52.436;13.346;2022-12-29T00:06:58;100170.00;;;11.80
15845;BMP180;50807;52.436;13.346;2022-12-29T00:07:29;100165.00;;;11.80
15845;BMP180;50807;52.436;13.346;2022-12-29T00:08:00;100178.00;;;11.80
15845;BMP180;50807;52.436;13.346;2022-12-29T00:08:31;100164.00;;;11.80
15845;BMP180;50807;52.436;13.346;2022-12-29T00:09:11;100176.00;;;11.80
15845;BMP180;50807;52.436;13.346;2022-12-29T00:09:44;100176.00;;;11.80
15845;BMP180;50807;52.436;13.346;2022-12-29T00:10:15;100166.00;;;11.80
15845;BMP180;50807;52.436;13.346;2022-12-29T00:10:46;100173.00;;;11.80
15845;BMP180;50807;52.436;13.346;2022-12-29T00:11:20;100172.00;;;11.80
15845;BMP180;50807;52.436;13.346;2022-12-29T00:11:52;100165.00;;;11.80
15845;BMP180;50807;52.436;13.346;2022-12-29T00:12:24;100162.00;;;11.80
15845;BMP180;50807;52.436;13.346;2022-12-29T00:12:55;100173.00;;;11.90
15845;BMP180;50807;52.436;13.346;2022-12-29T00:13:44;100159.00;;;11.80
15845;BMP180;50807;52.436;13.346;2022-12-29T00:14:33;100158.00;;;11.70
15845;BMP180;50807;52.436;13.346;2022-12-29T00:15:23;100166.00;;;11.70
15845;BMP180;50807;52.436;13.346;2022-12-29T00:16:09;100147.00;;;11.70
15845;BMP180;50807;52.436;13.346;2022-12-29T00:16:42;100146.00;;;11.70
15845;BMP180;50807;52.436;13.346;2022-12-29T00:17:13;100164.00;;;11.80
15845;BMP180;50807;52.436;13.346;2022-12-29T00:17:44;100155.00;;;11.80
15845;BMP180;50807;52.436;13.346;2022-12-29T00:18:16;100159.00;;;11.80
15845;BMP180;50807;52.436;13.346;2022-12-29T00:18:47;100153.00;;;11.80
15845;BMP180;50807;52.436;13.346;2022-12-29T00:19:17;100161.00;;;11.80
15845;BMP180;50807;52.436;13.346;2022-12-29T00:20:08;100160.00;;;11.80
15845;BMP180;50807;52.436;13.346;2022-12-29T00:20:57;100165.00;;;11.80
15845;BMP180;50807;52.436;13.346;2022-12-29T00:21:46;100176.00;;;11.80
15845;BMP180;50807;52.436;13.346;2022-12-29T00:22:35;100161.00;;;11.70
15845;BMP180;50807;52.436;13.346;2022-12-29T00:23:24;100169.00;;;11.70
15845;BMP180;50807;52.436;13.346;2022-12-29T00:24:17;100166.00;;;11.70
15845;BMP180;50807;52.436;13.346;2022-12-29T00:25:10;100156.00;;;11.70
15845;BMP180;50807;52.436;13.346;2022-12-29T00:26:03;100159.00;;;11.70
15845;BMP180;50807;52.436;13.346;2022-12-29T00:26:57;100147.00;;;11.60
15845;BMP180;50807;52.436;13.346;2022-12-29T00:27:47;100165.00;;;11.70
15845;BMP180;50807;52.436;13.346;2022-12-29T00:28:36;100158.00;;;11.70
15845;BMP180;50807;52.436;13.346;2022-12-29T00:29:25;100150.00;;;11.70
15845;BMP180;50807;52.436;13.346;2022-12-29T00:30:17;100157.00;;;11.60
15845;BMP180;50807;52.436;13.346;2022-12-29T00:31:11;100160.00;;;11.60
15845;BMP180;50807;52.436;13.346;2022-12-29T00:32:00;100155.00;;;11.70
15845;BMP180;50807;52.436;13.346;2022-12-29T00:32:50;100150.00;;;11.70
15845;BMP180;50807;52.436;13.346;2022-12-29T00:33:39;100145.00;;;11.70
15845;BMP180;50807;52.436;13.346;2022-12-29T00:34:28;100141.00;;;11.70
15845;BMP180;50807;52.436;13.346;2022-12-29T00:35:25;100158.00;;;11.60
15845;BMP180;50807;52.436;13.346;2022-12-29T00:36:02;100152.00;;;11.70
15845;BMP180;50807;52.436;13.346;2022-12-29T00:36:38;100141.00;;;11.70
15845;BMP180;50807;52.436;13.346;2022-12-29T00:37:11;100146.00;;;11.80
15845;BMP180;50807;52.436;13.346;2022-12-29T00:37:46;100159.00;;;11.80
15845;BMP180;50807;52.436;13.346;2022-12-29T00:38:40;100148.00;;;11.70
15845;BMP180;50807;52.436;13.346;2022-12-29T00:39:31;100159.00;;;11.70
15845;BMP180;50807;52.436;13.346;2022-12-29T00:40:21;100140.00;;;11.70
15845;BMP180;50807;52.436;13.346;2022-12-29T00:41:10;100149.00;;;11.70
15845;BMP180;50807;52.436;13.346;2022-12-29T00:42:14;100139.00;;;11.70
15845;BMP180;50807;52.436;13.346;2022-12-29T00:43:03;100148.00;;;11.70
15845;BMP180;50807;52.436;13.346;2022-12-29T00:43:52;100147.00;;;11.70
15845;BMP180;50807;52.436;13.346;2022-12-29T00:44:36;100150.00;;;11.70
15845;BMP180;50807;52.436;13.346;2022-12-29T00:45:08;100148.00;;;11.70
15845;BMP180;50807;52.436;13.346;2022-12-29T00:45:41;100146.00;;;11.70
15845;BMP180;50807;52.436;13.346;2022-12-29T00:46:13;100155.00;;;11.80
15845;BMP180;50807;52.436;13.346;2022-12-29T00:46:44;100151.00;;;11.80
15845;BMP180;50807;52.436;13.346;2022-12-29T00:47:15;100151.00;;;11.80
15845;BMP180;50807;52.436;13.346;2022-12-29T00:47:46;100143.00;;;11.80
15845;BMP180;50807;52.436;13.346;2022-12-29T00:48:17;100137.00;;;11.80
15845;BMP180;50807;52.436;13.346;2022-12-29T00:49:10;100136.00;;;11.80
15845;BMP180;50807;52.436;13.346;2022-12-29T00:49:59;100148.00;;;11.80
15845;BMP180;50807;52.436;13.346;2022-12-29T00:50:30;100145.00;;;11.80
15845;BMP180;50807;52.436;13.346;2022-12-29T00:51:01;100145.00;;;11.80
15845;BMP180;50807;52.436;13.346;2022-12-29T00:51:33;100135.00;;;11.80
15845;BMP180;50807;52.436;13.346;2022-12-29T00:52:06;100144.00;;;11.80
15845;BMP180;50807;52.436;13.346;2022-12-29T00:52:37;100131.00;;;11.90
15845;BMP180;50807;52.436;13.346;2022-12-29T00:53:09;100136.00;;;11.90
15845;BMP180;50807;52.436;13.346;2022-12-29T00:53:39;100141.00;;;11.90
15845;BMP180;50807;52.436;13.346;2022-12-29T00:54:11;100134.00;;;11.90
15845;BMP180;50807;52.436;13.346;2022-12-29T00:54:41;100135.00;;;11.90
15845;BMP180;50807;52.436;13.346;2022-12-29T00:55:15;100135.00;;;11.90
15845;BMP180;50807;52.436;13.346;2022-12-29T00:55:47;100138.00;;;11.90
15845;BMP180;50807;52.436;13.346;2022-12-29T00:56:18;100140.00;;;11.90
15845;BMP180;50807;52.436;13.346;2022-12-29T00:56:50;100136.00;;;11.90
15845;BMP180;50807;52.436;13.346;2022-12-29T00:57:22;100134.00;;;11.90
15845;BMP180;50807;52.436;13.346;2022-12-29T00:57:53;100144.00;;;11.90
15845;BMP180;50807;52.436;13.346;2022-12-29T00:58:27;100147.00;;;11.90
15845;BMP180;50807;52.436;13.346;2022-12-29T00:59:00;100137.00;;;11.90
15845;BMP180;50807;52.436;13.346;2022-12-29T00:59:32;100128.00;;;11.90
15845;BMP180;50807;52.436;13.346;2022-12-29T01:00:06;100141.00;;;11.90
15845;BMP180;50807;52.436;13.346;2022-12-29T01:00:38;100135.00;;;11.90
15845;BMP180;50807;52.436;13.346;2022-12-29T01:01:09;100131.00;;;11.90
15845;BMP180;50807;52.436;13.346;2022-12-29T01:01:40;100129.00;;;12.00
15845;BMP180;50807;52.436;13.346;2022-12-29T01:02:11;100147.00;;;12.00
15845;BMP180;50807;52.436;13.346;2022-12-29T01:02:43;100135.00;;;12.00
15845;BMP180;50807;52.436;13.346;2022-12-29T01:03:14;100134.00;;;12.00
15845;BMP180;50807;52.436;13.346;2022-12-29T01:03:45;100134.00;;;12.00
15845;BMP180;50807;52.436;13.346;2022-12-29T01:04:15;100125.00;;;12.00
15845;BMP180;50807;52.436;13.346;2022-12-29T01:04:47;100125.00;;;12.00
15845;BMP180;50807;52.436;13.346;2022-12-29T01:05:18;100125.00;;;12.00
15845;BMP180;50807;52.436;13.346;2022-12-29T01:05:49;100125.00;;;12.00
15845;BMP180;50807;52.436;13.346;2022-12-29T01:06:20;100131.00;;;12.00
15845;BMP180;50807;52.436;13.346;2022-12-29T01:06:52;100142.00;;;12.00
15845;BMP180;50807;52.436;13.346;2022-12-29T01:07:23;100124.00;;;12.00
15845;BMP180;50807;52.436;13.346;2022-12-29T01:07:55;100130.00;;;12.00
15845;BMP180;50807;52.436;13.346;2022-12-29T01:08:27;100125.00;;;12.00
15845;BMP180;50807;52.436;13.346;2022-12-29T01:08:58;100118.00;;;12.00
15845;BMP180;50807;52.436;13.346;2022-12-29T01:09:47;100130.00;;;11.90
15845;BMP180;50807;52.436;13.346;2022-12-29T01:10:37;100123.00;;;11.90
15845;BMP180;50807;52.436;13.346;2022-12-29T01:11:12;100127.00;;;11.80
15845;BMP180;50807;52.436;13.346;2022-12-29T01:11:43;100132.00;;;11.90
15845;BMP180;50807;52.436;13.346;2022-12-29T01:12:14;100119.00;;;11.90
15845;BMP180;50807;52.436;13.346;2022-12-29T01:12:45;100128.00;;;11.90
15845;BMP180;50807;52.436;13.346;2022-12-29T01:13:17;100123.00;;;11.90
15845;BMP180;50807;52.436;13.346;2022-12-29T01:13:49;100123.00;;;11.90
15845;BMP180;50807;52.436;13.346;2022-12-29T01:14:21;100143.00;;;11.90
15845;BMP180;50807;52.436;13.346;2022-12-29T01:14:53;100125.00;;;11.90
15845;BMP180;50807;52.436;13.346;2022-12-29T01:15:24;100123.00;;;11.90
15845;BMP180;50807;52.436;13.346;2022-12-29T01:15:56;100135.00;;;12.00
15845;BMP180;50807;52.436;13.346;2022-12-29T01:16:27;100129.00;;;12.00
15845;BMP180;50807;52.436;13.346;2022-12-29T01:16:58;100136.00;;;12.00
15845;BMP180;50807;52.436;13.346;2022-12-29T01:17:30;100119.00;;;12.00
15845;BMP180;50807;52.436;13.346;2022-12-29T01:18:00;100124.00;;;12.00
15845;BMP180;50807;52.436;13.346;2022-12-29T01:18:31;100118.00;;;12.00
15845;BMP180;50807;52.436;13.346;2022-12-29T01:19:04;100121.00;;;12.00
15845;BMP180;50807;52.436;13.346;2022-12-29T01:19:35;100117.00;;;12.00
15845;BMP180;50807;52.436;13.346;2022-12-29T01:20:07;100113.00;;;12.00
15845;BMP180;50807;52.436;13.346;2022-12-29T01:20:39;100113.00;;;12.00
15845;BMP180;50807;52.436;13.346;2022-12-29T01:21:09;100116.00;;;12.00
15845;BMP180;50807;52.436;13.346;2022-12-29T01:21:41;100120.00;;;12.00
15845;BMP180;50807;52.436;13.346;2022-12-29T01:22:11;100126.00;;;12.00
15845;BMP180;50807;52.436;13.346;2022-12-29T01:22:43;100113.00;;;12.00
15845;BMP180;50807;52.436;13.346;2022-12-29T01:23:14;100113.00;;;12.00
15845;BMP180;50807;52.436;13.346;2022-12-29T01:23:45;100119.00;;;12.00
15845;BMP180;50807;52.436;13.346;2022-12-29T01:24:19;100110.00;;;12.00
15845;BMP180;50807;52.436;13.346;2022-12-29T01:24:50;100118.00;;;12.00
15845;BMP180;50807;52.436;13.346;2022-12-29T01:25:21;100120.00;;;12.00
15845;BMP180;50807;52.436;13.346;2022-12-29T01:25:52;100108.00;;;12.00
15845;BMP180;50807;52.436;13.346;2022-12-29T01:26:25;100127.00;;;12.00
15845;BMP180;50807;52.436;13.346;2022-12-29T01:26:55;100120.00;;;12.00
15845;BMP180;50807;52.436;13.346;2022-12-29T01:27:27;100131.00;;;12.00
15845;BMP180;50807;52.436;13.346;2022-12-29T01:27:58;100123.00;;;12.00
15845;BMP180;50807;52.436;13.346;2022-12-29T01:28:29;100122.00;;;12.00
15845;BMP180;50807;52.436;13.346;2022-12-29T01:29:00;100132.00;;;12.00
15845;BMP180;50807;52.436;13.346;2022-12-29T01:29:31;100123.00;;;12.00
15845;BMP180;50807;52.436;13.346;2022-12-29T01:30:03;100117.00;;;12.00
15845;BMP180;50807;52.436;13.346;2022-12-29T01:30:35;100119.00;;;12.00
15845;BMP180;50807;52.436;13.346;2022-12-29T01:31:06;100113.00;;;12.00
15845;BMP180;50807;52.436;13.346;2022-12-29T01:31:37;100123.00;;;12.00
15845;BMP180;50807;52.436;13.346;2022-12-29T01:32:09;100129.00;;;12.00
15845;BMP180;50807;52.436;13.346;2022-12-29T01:32:40;100114.00;;;12.10
15845;BMP180;50807;52.436;13.346;2022-12-29T01:33:10;100119.00;;;12.10
15845;BMP180;50807;52.436;13.346;2022-12-29T01:33:43;100114.00;;;12.10
15845;BMP180;50807;52.436;13.346;2022-12-29T01:34:14;100125.00;;;12.10
15845;BMP180;50807;52.436;13.346;2022-12-29T01:34:45;100119.00;;;12.10
15845;BMP180;50807;52.436;13.346;2022-12-29T01:35:17;100119.00;;;12.10
15845;BMP180;50807;52.436;13.346;2022-12-29T01:35:47;100113.00;;;12.10
15845;BMP180;50807;52.436;13.346;2022-12-29T01:36:19;100117.00;;;12.10
15845;BMP180;50807;52.436;13.346;2022-12-29T01:36:50;100125.00;;;12.10
15845;BMP180;50807;52.436;13.346;2022-12-29T01:37:21;100115.00;;;12.10
15845;BMP180;50807;52.436;13.346;2022-12-29T01:37:52;100117.00;;;12.10
15845;BMP180;50807;52.436;13.346;2022-12-29T01:38:24;100123.00;;;12.10
15845;BMP180;50807;52.436;13.346;2022-12-29T01:38:54;100120.00;;;12.10
15845;BMP180;50807;52.436;13.346;2022-12-29T01:39:25;100124.00;;;12.10
15845;BMP180;50807;52.436;13.346;2022-12-29T01:39:57;100111.00;;;12.10
15845;BMP180;50807;52.436;13.346;2022-12-29T01:40:28;100118.00;;;12.10
15845;BMP180;50807;52.436;13.346;2022-12-29T01:40:59;100127.00;;;12.10
15845;BMP180;50807;52.436;13.346;2022-12-29T01:41:32;100127.00;;;12.10
15845;BMP180;50807;52.436;13.346;2022-12-29T01:42:03;100118.00;;;12.10
15845;BMP180;50807;52.436;13.346;2022-12-29T01:42:34;100117.00;;;12.10
15845;BMP180;50807;52.436;13.346;2022-12-29T01:43:10;100129.00;;;12.10
15845;BMP180;50807;52.436;13.346;2022-12-29T01:43:44;100117.00;;;12.10
15845;BMP180;50807;52.436;13.346;2022-12-29T01:44:56;100123.00;;;11.90
15845;BMP180;50807;52.436;13.346;2022-12-29T01:45:28;100119.00;;;12.00
15845;BMP180;50807;52.436;13.346;2022-12-29T01:45:59;100119.00;;;12.00
15845;BMP180;50807;52.436;13.346;2022-12-29T01:46:34;100118.00;;;12.00
15845;BMP180;50807;52.436;13.346;2022-12-29T01:47:08;100118.00;;;12.10
15845;BMP180;50807;52.436;13.346;2022-12-29T01:47:46;100120.00;;;12.00
15845;BMP180;50807;52.436;13.346;2022-12-29T01:48:19;100128.00;;;12.00
15845;BMP180;50807;52.436;13.346;2022-12-29T01:48:56;100127.00;;;12.00
15845;BMP180;50807;52.436;13.346;2022-12-29T01:49:28;100118.00;;;12.10
15845;BMP180;50807;52.436;13.346;2022-12-29T01:50:05;100120.00;;;12.00
15845;BMP180;50807;52.436;13.346;2022-12-29T01:50:42;100111.00;;;12.00
15845;BMP180;50807;52.436;13.346;2022-12-29T01:51:16;100101.00;;;12.00
15845;BMP180;50807;52.436;13.346;2022-12-29T01:51:56;100109.00;;;12.00
15845;BMP180;50807;52.436;13.346;2022-12-29T01:52:32;100118.00;;;12.00
15845;BMP180;50807;52.436;13.346;2022-12-29T01:53:09;100112.00;;;12.00
15845;BMP180;50807;52.436;13.346;2022-12-29T01:53:41;100120.00;;;12.00
15845;BMP180;50807;52.436;13.346;2022-12-29T01:54:22;100113.00;;;12.00
15845;BMP180;50807;52.436;13.346;2022-12-29T01:54:57;100120.00;;;12.00
15845;BMP180;50807;52.436;13.346;2022-12-29T01:55:34;100115.00;;;12.00
15845;BMP180;50807;52.436;13.346;2022-12-29T01:56:10;100109.00;;;12.00
15845;BMP180;50807;52.436;13.346;2022-12-29T01:56:44;100104.00;;;12.00
15845;BMP180;50807;52.436;13.346;2022-12-29T01:57:21;100104.00;;;12.00
15845;BMP180;50807;52.436;13.346;2022-12-29T01:57:59;100107.00;;;12.00
15845;BMP180;50807;52.436;13.346;2022-12-29T01:58:37;100103.00;;;12.00
15845;BMP180;50807;52.436;13.346;2022-12-29T01:59:18;100099.00;;;11.90
15845;BMP180;50807;52.436;13.346;2022-12-29T01:59:58;100092.00;;;12.00
15845;BMP180;50807;52.436;13.346;2022-12-29T02:00:30;100095.00;;;12.00
15845;BMP180;50807;52.436;13.346;2022-12-29T02:01:02;100093.00;;;12.00
15845;BMP180;50807;52.436;13.346;2022-12-29T02:01:33;100092.00;;;12.00
15845;BMP180;50807;52.436;13.346;2022-12-29T02:02:05;100092.00;;;12.00
15845;BMP180;50807;52.436;13.346;2022-12-29T02:02:37;100098.00;;;12.10
15845;BMP180;50807;52.436;13.346;2022-12-29T02:03:10;100087.00;;;12.10
15845;BMP180;50807;52.436;13.346;2022-12-29T02:03:41;100097.00;;;12.10
15845;BMP180;50807;52.436;13.346;2022-12-29T02:04:13;100091.00;;;12.10
15845;BMP180;50807;52.436;13.346;2022-12-29T02:04:44;100092.00;;;12.10
15845;BMP180;50807;52.436;13.346;2022-12-29T02:05:24;100085.00;;;12.10
15845;BMP180;50807;52.436;13.346;2022-12-29T02:06:02;100095.00;;;12.10
15845;BMP180;50807;52.436;13.346;2022-12-29T02:06:41;100099.00;;;12.00
15845;BMP180;50807;52.436;13.346;2022-12-29T02:07:18;100094.00;;;12.10
15845;BMP180;50807;52.436;13.346;2022-12-29T02:07:51;100093.00;;;12.10
15845;BMP180;50807;52.436;13.346;2022-12-29T02:08:26;100089.00;;;12.10
15845;BMP180;50807;52.436;13.346;2022-12-29T02:08:59;100090.00;;;12.10
15845;BMP180;50807;52.436;13.346;2022-12-29T02:09:30;100095.00;;;12.10
15845;BMP180;50807;52.436;13.346;2022-12-29T02:10:03;100095.00;;;12.10
15845;BMP180;50807;52.436;13.346;2022-12-29T02:10:36;100090.00;;;12.10
15845;BMP180;50807;52.436;13.346;2022-12-29T02:11:07;100082.00;;;12.10
15845;BMP180;50807;52.436;13.346;2022-12-29T02:11:39;100092.00;;;12.10
15845;BMP180;50807;52.436;13.346;2022-12-29T02:12:12;100089.00;;;12.10
15845;BMP180;50807;52.436;13.346;2022-12-29T02:12:42;100091.00;;;12.10
15845;BMP180;50807;52.436;13.346;2022-12-29T02:13:15;100087.00;;;12.10
15845;BMP180;50807;52.436;13.346;2022-12-29T02:13:46;100091.00;;;12.10
15845;BMP180;50807;52.436;13.346;2022-12-29T02:14:18;100090.00;;;12.10
15845;BMP180;50807;52.436;13.346;2022-12-29T02:14:53;100084.00;;;12.10
15845;BMP180;50807;52.436;13.346;2022-12-29T02:15:39;100082.00;;;12.10
15845;BMP180;50807;52.436;13.346;2022-12-29T02:16:35;100089.00;;;12.00
15845;BMP180;50807;52.436;13.346;2022-12-29T02:17:21;100087.00;;;12.00
15845;BMP180;50807;52.436;13.346;2022-12-29T02:18:13;100091.00;;;12.00
15845;BMP180;50807;52.436;13.346;2022-12-29T02:19:03;100076.00;;;12.00
15845;BMP180;50807;52.436;13.346;2022-12-29T02:21:44;100088.00;;;11.80
15845;BMP180;50807;52.436;13.346;2022-12-29T02:22:27;100080.00;;;11.90
15845;BMP180;50807;52.436;13.346;2022-12-29T02:23:24;100079.00;;;11.90
15845;BMP180;50807;52.436;13.346;2022-12-29T02:24:52;100081.00;;;11.80
15845;BMP180;50807;52.436;13.346;2022-12-29T02:27:11;100089.00;;;11.80
15845;BMP180;50807;52.436;13.346;2022-12-29T02:28:02;100076.00;;;11.80
15845;BMP180;50807;52.436;13.346;2022-12-29T02:29:46;100074.00;;;11.80
15845;BMP180;50807;52.436;13.346;2022-12-29T02:30:37;100081.00;;;11.80
15845;BMP180;50807;52.436;13.346;2022-12-29T02:31:18;100068.00;;;11.80
15845;BMP180;50807;52.436;13.346;2022-12-29T02:31:59;100073.00;;;11.90
15845;BMP180;50807;52.436;13.346;2022-12-29T02:32:38;100066.00;;;11.90
15845;BMP180;50807;52.436;13.346;2022-12-29T02:33:41;100076.00;;;11.90
15845;BMP180;50807;52.436;13.346;2022-12-29T02:34:30;100073.00;;;11.90
15845;BMP180;50807;52.436;13.346;2022-12-29T02:35:15;100082.00;;;11.90
15845;BMP180;50807;52.436;13.346;2022-12-29T02:36:00;100078.00;;;12.00
15845;BMP180;50807;52.436;13.346;2022-12-29T02:36:44;100070.00;;;12.00
15845;BMP180;50807;52.436;13.346;2022-12-29T02:37:24;100067.00;;;12.00
15845;BMP180;50807;52.436;13.346;2022-12-29T02:38:08;100049.00;;;12.00
15845;BMP180;50807;52.436;13.346;2022-12-29T02:38:54;100068.00;;;12.00
15845;BMP180;50807;52.436;13.346;2022-12-29T02:39:38;100059.00;;;12.00
15845;BMP180;50807;52.436;13.346;2022-12-29T02:40:21;100058.00;;;12.10
15845;BMP180;50807;52.436;13.346;2022-12-29T02:41:04;100057.00;;;12.10
15845;BMP180;50807;52.436;13.346;2022-12-29T02:41:50;100063.00;;;12.10
15845;BMP180;50807;52.436;13.346;2022-12-29T02:42:35;100068.00;;;12.10
15845;BMP180;50807;52.436;13.346;2022-12-29T02:43:20;100058.00;;;12.10
15845;BMP180;50807;52.436;13.346;2022-12-29T02:44:01;100060.00;;;12.10
15845;BMP180;50807;52.436;13.346;2022-12-29T02:44:51;100064.00;;;12.10
15845;BMP180;50807;52.436;13.346;2022-12-29T02:45:39;100051.00;;;12.10
15845;BMP180;50807;52.436;13.346;2022-12-29T02:46:22;100063.00;;;12.10
15845;BMP180;50807;52.436;13.346;2022-12-29T02:47:04;100053.00;;;12.10
15845;BMP180;50807;52.436;13.346;2022-12-29T02:47:47;100060.00;;;12.10
15845;BMP180;50807;52.436;13.346;2022-12-29T02:48:24;100042.00;;;12.20
15845;BMP180;50807;52.436;13.346;2022-12-29T02:49:10;100061.00;;;12.20
15845;BMP180;50807;52.436;13.346;2022-12-29T02:49:50;100059.00;;;12.20
15845;BMP180;50807;52.436;13.346;2022-12-29T02:50:32;100054.00;;;12.20
15845;BMP180;50807;52.436;13.346;2022-12-29T02:51:10;100054.00;;;12.20
15845;BMP180;50807;52.436;13.346;2022-12-29T02:51:51;100059.00;;;12.30
15845;BMP180;50807;52.436;13.346;2022-12-29T02:52:27;100058.00;;;12.30
15845;BMP180;50807;52.436;13.346;2022-12-29T02:53:06;100067.00;;;12.30
15845;BMP180;50807;52.436;13.346;2022-12-29T02:53:38;100060.00;;;12.40
15845;BMP180;50807;52.436;13.346;2022-12-29T02:54:28;100070.00;;;12.40
15845;BMP180;50807;52.436;13.346;2022-12-29T02:55:14;100070.00;;;12.40
15845;BMP180;50807;52.436;13.346;2022-12-29T02:55:48;100043.00;;;12.40
15845;BMP180;50807;52.436;13.346;2022-12-29T02:56:21;100075.00;;;12.40
15845;BMP180;50807;52.436;13.346;2022-12-29T02:56:51;100062.00;;;12.40
15845;BMP180;50807;52.436;13.346;2022-12-29T02:57:34;100076.00;;;12.40
15845;BMP180;50807;52.436;13.346;2022-12-29T02:58:17;100061.00;;;12.40
15845;BMP180;50807;52.436;13.346;2022-12-29T02:58:48;100055.00;;;12.50
15845;BMP180;50807;52.436;13.346;2022-12-29T02:59:20;100061.00;;;12.50
15845;BMP180;50807;52.436;13.346;2022-12-29T02:59:57;100062.00;;;12.50
15845;BMP180;50807;52.436;13.346;2022-12-29T03:00:29;100065.00;;;12.50
15845;BMP180;50807;52.436;13.346;2022-12-29T03:01:20;100065.00;;;12.50
15845;BMP180;50807;52.436;13.346;2022-12-29T03:02:30;100036.00;;;12.40
15845;BMP180;50807;52.436;13.346;2022-12-29T03:03:20;100049.00;;;12.40
15845;BMP180;50807;52.436;13.346;2022-12-29T03:04:18;100057.00;;;12.30
15845;BMP180;50807;52.436;13.346;2022-12-29T03:05:13;100048.00;;;12.40
15845;BMP180;50807;52.436;13.346;2022-12-29T03:06:14;100047.00;;;12.30
15845;BMP180;50807;52.436;13.346;2022-12-29T03:06:56;100046.00;;;12.40
15845;BMP180;50807;52.436;13.346;2022-12-29T03:07:39;100041.00;;;12.40
15845;BMP180;50807;52.436;13.346;2022-12-29T03:08:23;100043.00;;;12.40
15845;BMP180;50807;52.436;13.346;2022-12-29T03:09:05;100048.00;;;12.40
15845;BMP180;50807;52.436;13.346;2022-12-29T03:09:49;100048.00;;;12.50
15845;BMP180;50807;52.436;13.346;2022-12-29T03:10:35;100053.00;;;12.50
15845;BMP180;50807;52.436;13.346;2022-12-29T03:11:11;100041.00;;;12.50
15845;BMP180;50807;52.436;13.346;2022-12-29T03:12:05;100036.00;;;12.50
15845;BMP180;50807;52.436;13.346;2022-12-29T03:12:48;100041.00;;;12.50
15845;BMP180;50807;52.436;13.346;2022-12-29T03:13:47;100018.00;;;12.50
15845;BMP180;50807;52.436;13.346;2022-12-29T03:14:56;100016.00;;;12.40
15845;BMP180;50807;52.436;13.346;2022-12-29T03:15:56;100017.00;;;12.40
15845;BMP180;50807;52.436;13.346;2022-12-29T03:16:43;100029.00;;;12.50
15845;BMP180;50807;52.436;13.346;2022-12-29T03:17:25;100025.00;;;12.50
15845;BMP180;50807;52.436;13.346;2022-12-29T03:18:02;100031.00;;;12.50
15845;BMP180;50807;52.436;13.346;2022-12-29T03:18:45;100019.00;;;12.60
15845;BMP180;50807;52.436;13.346;2022-12-29T03:19:24;100029.00;;;12.60
15845;BMP180;50807;52.436;13.346;2022-12-29T03:20:04;100028.00;;;12.60
15845;BMP180;50807;52.436;13.346;2022-12-29T03:20:44;100026.00;;;12.60
15845;BMP180;50807;52.436;13.346;2022-12-29T03:21:29;100028.00;;;12.60
15845;BMP180;50807;52.436;13.346;2022-12-29T03:22:21;100018.00;;;12.60
15845;BMP180;50807;52.436;13.346;2022-12-29T03:23:01;100019.00;;;12.60
15845;BMP180;50807;52.436;13.346;2022-12-29T03:23:36;100021.00;;;12.70
15845;BMP180;50807;52.436;13.346;2022-12-29T03:24:09;100017.00;;;12.70
15845;BMP180;50807;52.436;13.346;2022-12-29T03:24:44;100019.00;;;12.70
15845;BMP180;50807;52.436;13.346;2022-12-29T03:25:23;100024.00;;;12.70
15845;BMP180;50807;52.436;13.346;2022-12-29T03:25:59;100013.00;;;12.70
15845;BMP180;50807;52.436;13.346;2022-12-29T03:26:33;100022.00;;;12.80
15845;BMP180;50807;52.436;13.346;2022-12-29T03:27:06;100027.00;;;12.80
15845;BMP180;50807;52.436;13.346;2022-12-29T03:27:44;100026.00;;;12.80
15845;BMP180;50807;52.436;13.346;2022-12-29T03:28:22;100025.00;;;12.80
15845;BMP180;50807;52.436;13.346;2022-12-29T03:28:54;100017.00;;;12.90
15845;BMP180;50807;52.436;13.346;2022-12-29T03:29:33;100023.00;;;12.80
15845;BMP180;50807;52.436;13.346;2022-12-29T03:30:08;100008.00;;;12.90
15845;BMP180;50807;52.436;13.346;2022-12-29T03:30:41;100017.00;;;12.90
15845;BMP180;50807;52.436;13.346;2022-12-29T03:31:14;100016.00;;;12.90
15845;BMP180;50807;52.436;13.346;2022-12-29T03:31:49;100018.00;;;12.90
15845;BMP180;50807;52.436;13.346;2022-12-29T03:32:26;100017.00;;;12.90
15845;BMP180;50807;52.436;13.346;2022-12-29T03:33:03;100020.00;;;12.90
15845;BMP180;50807;52.436;13.346;2022-12-29T03:33:37;100014.00;;;12.90
15845;BMP180;50807;52.436;13.346;2022-12-29T03:34:11;100018.00;;;12.90
15845;BMP180;50807;52.436;13.346;2022-12-29T03:34:43;100022.00;;;13.00
15845;BMP180;50807;52.436;13.346;2022-12-29T03:35:20;100021.00;;;12.90
15845;BMP180;50807;52.436;13.346;2022-12-29T03:35:59;100018.00;;;12.90
15845;BMP180;50807;52.436;13.346;2022-12-29T03:36:39;100010.00;;;12.90